createdAt,value
2018-12-10T00:01:42.615Z,89.63
2018-12-10T00:04:10.163Z,90.05
2018-12-10T00:06:37.679Z,89.72
2018-12-10T00:09:05.682Z,88.90
2018-12-10T00:11:33.308Z,88.64
2018-12-10T00:14:00.786Z,89.57
2018-12-10T00:16:28.320Z,89.56
2018-12-10T00:18:55.891Z,89.06
2018-12-10T00:21:23.465Z,88.48
2018-12-10T00:23:50.906Z,88.95
2018-12-10T00:26:18.359Z,87.81
2018-12-10T00:28:45.826Z,87.87
2018-12-10T00:31:13.277Z,88.84
2018-12-10T00:33:40.693Z,87.37
2018-12-10T00:36:08.134Z,87.13
2018-12-10T00:38:35.654Z,88.35
2018-12-10T00:41:03.106Z,88.27
2018-12-10T00:43:30.562Z,88.61
2018-12-10T00:45:58.037Z,88.32
2018-12-10T00:48:25.491Z,88.33
2018-12-10T00:50:52.916Z,87.84
2018-12-10T00:53:20.384Z,88.64
2018-12-10T00:55:47.793Z,88.73
2018-12-10T00:58:15.308Z,88.70
2018-12-10T01:00:42.756Z,89.01
2018-12-10T01:03:10.252Z,89.52
2018-12-10T01:05:37.777Z,89.87
2018-12-10T01:08:05.264Z,90.28
2018-12-10T01:10:32.782Z,90.07
2018-12-10T01:13:00.196Z,89.94
2018-12-10T01:15:27.696Z,90.58
2018-12-10T01:17:55.146Z,90.10
2018-12-10T01:20:22.626Z,90.52
2018-12-10T01:22:50.040Z,90.18
2018-12-10T01:25:17.472Z,91.29
2018-12-10T01:27:44.992Z,91.55
2018-12-10T01:30:12.448Z,91.97
2018-12-10T01:32:39.918Z,91.98
2018-12-10T01:35:07.380Z,91.74
2018-12-10T01:37:34.929Z,90.92
2018-12-10T01:40:02.483Z,90.00
2018-12-10T01:42:29.891Z,90.51
2018-12-10T01:44:57.354Z,89.87
2018-12-10T01:47:24.848Z,89.35
2018-12-10T01:49:52.323Z,90.02
2018-12-10T01:52:19.773Z,89.33
2018-12-10T01:54:47.205Z,89.43
2018-12-10T01:57:14.697Z,89.11
2018-12-10T01:59:42.134Z,88.53
2018-12-10T02:02:09.696Z,87.36
2018-12-10T02:04:37.138Z,86.84
2018-12-10T02:07:04.569Z,87.47
2018-12-10T02:09:31.988Z,86.85
2018-12-10T02:11:59.450Z,87.17
2018-12-10T02:14:26.909Z,87.07
2018-12-10T02:16:54.357Z,87.34
2018-12-10T02:19:21.901Z,87.73
2018-12-10T02:21:49.351Z,86.65
2018-12-10T02:24:16.799Z,87.75
2018-12-10T02:26:44.216Z,85.98
2018-12-10T02:29:13.436Z,86.32
2018-12-10T02:31:41.124Z,87.04
2018-12-10T02:34:08.592Z,88.04
2018-12-10T02:36:36.049Z,87.15
2018-12-10T02:39:04.945Z,87.04
2018-12-10T02:41:32.495Z,86.80
2018-12-10T02:43:59.913Z,87.16
2018-12-10T02:46:27.389Z,87.74
2018-12-10T02:48:54.858Z,88.63
2018-12-10T02:51:22.303Z,88.03
2018-12-10T02:53:49.790Z,88.08
2018-12-10T02:56:17.244Z,88.73
2018-12-10T02:58:44.665Z,89.14
2018-12-10T03:01:12.089Z,88.20
2018-12-10T03:03:39.537Z,88.34
2018-12-10T03:06:07.058Z,88.61
2018-12-10T03:08:34.598Z,88.62
2018-12-10T03:11:02.085Z,87.81
2018-12-10T03:13:29.635Z,87.69
2018-12-10T03:15:57.192Z,87.98
2018-12-10T03:18:24.616Z,88.41
2018-12-10T03:20:52.982Z,88.81
2018-12-10T03:23:20.527Z,88.01
2018-12-10T03:25:47.985Z,88.50
2018-12-10T03:28:15.446Z,88.38
2018-12-10T03:30:43.004Z,88.22
2018-12-10T03:33:10.569Z,89.11
2018-12-10T03:35:38.033Z,87.56
2018-12-10T03:38:05.427Z,87.97
2018-12-10T03:40:32.907Z,88.13
2018-12-10T03:43:00.364Z,89.35
2018-12-10T03:45:27.747Z,88.75
2018-12-10T03:47:55.312Z,88.51
2018-12-10T03:50:22.849Z,88.77
2018-12-10T03:52:50.318Z,89.42
2018-12-10T03:55:17.774Z,89.36
2018-12-10T03:57:45.173Z,88.90
2018-12-10T04:00:12.645Z,88.90
2018-12-10T04:02:40.039Z,88.59
2018-12-10T04:05:07.524Z,89.01
2018-12-10T04:07:34.988Z,89.33
2018-12-10T04:10:02.670Z,89.06
2018-12-10T04:12:30.187Z,88.98
2018-12-10T04:14:57.582Z,89.80
2018-12-10T04:17:25.093Z,89.54
2018-12-10T04:19:52.553Z,89.74
2018-12-10T04:22:19.933Z,89.35
2018-12-10T04:24:47.315Z,88.25
2018-12-10T04:27:14.699Z,88.54
2018-12-10T04:29:42.130Z,88.61
2018-12-10T04:32:09.528Z,88.55
2018-12-10T04:34:36.980Z,88.70
2018-12-10T04:37:04.547Z,87.48
2018-12-10T04:39:31.997Z,88.39
2018-12-10T04:41:59.458Z,87.57
2018-12-10T04:44:26.870Z,87.42
2018-12-10T04:46:54.263Z,87.96
2018-12-10T04:49:21.649Z,88.64
2018-12-10T04:51:49.034Z,89.12
2018-12-10T04:54:16.517Z,90.28
2018-12-10T04:56:43.986Z,91.16
2018-12-10T04:59:11.414Z,89.80
2018-12-10T05:01:38.797Z,91.72
2018-12-10T05:04:06.264Z,90.54
2018-12-10T05:06:33.647Z,90.75
2018-12-10T05:09:01.069Z,90.32
2018-12-10T05:11:28.535Z,90.17
2018-12-10T05:13:55.981Z,90.63
2018-12-10T05:16:23.439Z,90.27
2018-12-10T05:18:50.818Z,90.36
2018-12-10T05:21:18.207Z,89.78
2018-12-10T05:23:45.591Z,89.51
2018-12-10T05:26:12.977Z,90.16
2018-12-10T05:28:40.358Z,89.86
2018-12-10T05:31:07.783Z,90.28
2018-12-10T05:33:35.158Z,90.52
2018-12-10T05:36:02.549Z,91.45
2018-12-10T05:38:29.926Z,90.73
2018-12-10T05:40:57.399Z,90.79
2018-12-10T05:43:24.865Z,91.72
2018-12-10T05:45:52.322Z,91.05
2018-12-10T05:48:19.711Z,90.89
2018-12-10T05:50:47.233Z,91.04
2018-12-10T05:53:14.775Z,91.52
2018-12-10T05:55:42.213Z,92.52
2018-12-10T05:58:09.698Z,92.07
2018-12-10T06:00:37.153Z,91.91
2018-12-10T06:03:04.610Z,92.16
2018-12-10T06:05:32.004Z,91.31
2018-12-10T06:07:59.395Z,91.45
2018-12-10T06:10:26.878Z,91.58
2018-12-10T06:12:54.306Z,91.47
2018-12-10T06:15:21.714Z,91.37
2018-12-10T06:17:49.159Z,90.90
2018-12-10T06:20:16.634Z,90.26
2018-12-10T06:22:44.282Z,90.30
2018-12-10T06:25:11.668Z,90.20
2018-12-10T06:27:39.119Z,89.99
2018-12-10T06:30:06.842Z,89.89
2018-12-10T06:32:34.270Z,89.89
2018-12-10T06:35:01.742Z,89.83
2018-12-10T06:37:37.416Z,88.86
2018-12-10T06:39:58.790Z,90.18
2018-12-10T06:42:26.270Z,90.42
2018-12-10T06:44:53.792Z,90.65
2018-12-10T06:47:21.328Z,89.21
2018-12-10T06:49:48.758Z,88.04
2018-12-10T06:52:16.198Z,87.99
2018-12-10T06:54:43.670Z,87.52
2018-12-10T06:57:11.062Z,88.15
2018-12-10T06:59:38.454Z,88.11
2018-12-10T07:02:05.913Z,89.04
2018-12-10T07:04:33.494Z,88.59
2018-12-10T07:07:00.961Z,88.52
2018-12-10T07:09:28.407Z,89.84
2018-12-10T07:11:55.809Z,89.77
2018-12-10T07:14:23.213Z,90.59
2018-12-10T07:16:50.680Z,91.61
2018-12-10T07:19:18.137Z,90.82
2018-12-10T07:21:45.546Z,91.10
2018-12-10T07:24:12.959Z,92.39
2018-12-10T07:26:40.354Z,92.13
2018-12-10T07:29:07.734Z,91.36
2018-12-10T07:31:35.218Z,91.70
2018-12-10T07:34:02.692Z,92.00
2018-12-10T07:36:30.126Z,91.93
2018-12-10T07:38:57.572Z,92.10
2018-12-10T07:41:25.039Z,90.32
2018-12-10T07:43:52.497Z,90.70
2018-12-10T07:46:19.882Z,89.49
2018-12-10T07:48:47.270Z,89.98
2018-12-10T07:51:14.760Z,88.97
2018-12-10T07:53:42.222Z,89.92
2018-12-10T07:56:09.674Z,88.61
2018-12-10T07:58:37.067Z,88.54
2018-12-10T08:01:04.490Z,88.84
2018-12-10T08:03:31.882Z,88.55
2018-12-10T08:05:59.274Z,88.87
2018-12-10T08:08:26.735Z,88.61
2018-12-10T08:10:54.122Z,86.60
2018-12-10T08:13:21.570Z,84.40
2018-12-10T08:15:48.954Z,82.16
2018-12-10T08:18:16.378Z,82.73
2018-12-10T08:20:43.761Z,83.06
2018-12-10T08:23:11.186Z,82.79
2018-12-10T08:25:38.563Z,84.34
2018-12-10T08:28:05.971Z,84.89
2018-12-10T08:30:33.619Z,85.50
2018-12-10T08:33:01.118Z,85.29
2018-12-10T08:35:28.582Z,85.42
2018-12-10T08:37:56.033Z,85.45
2018-12-10T08:40:23.555Z,85.52
2018-12-10T08:42:51.097Z,84.31
2018-12-10T08:45:18.611Z,81.41
2018-12-10T08:47:46.062Z,80.75
2018-12-10T08:50:13.522Z,80.22
2018-12-10T08:52:40.980Z,81.26
2018-12-10T08:55:08.446Z,81.01
2018-12-10T08:57:36.098Z,80.94
2018-12-10T09:00:05.001Z,82.01
2018-12-10T09:02:32.382Z,81.98
2018-12-10T09:04:59.774Z,82.13
2018-12-10T09:07:27.259Z,82.77
2018-12-10T09:09:54.714Z,81.30
2018-12-10T09:12:22.105Z,78.25
2018-12-10T09:14:49.522Z,76.73
2018-12-10T09:17:16.977Z,77.91
2018-12-10T09:19:44.370Z,76.96
2018-12-10T09:22:11.742Z,76.63
2018-12-10T09:24:39.155Z,74.58
2018-12-10T09:27:06.713Z,72.36
2018-12-10T09:29:34.202Z,72.11
2018-12-10T09:32:01.734Z,72.26
2018-12-10T09:34:29.174Z,74.32
2018-12-10T09:36:56.563Z,77.10
2018-12-10T09:39:23.991Z,77.98
2018-12-10T09:41:51.375Z,78.93
2018-12-10T09:44:18.802Z,76.84
2018-12-10T09:46:46.281Z,74.58
2018-12-10T09:49:13.727Z,72.42
2018-12-10T09:51:42.932Z,73.70
2018-12-10T09:54:10.551Z,75.28
2018-12-10T09:56:37.930Z,72.92
2018-12-10T09:59:05.318Z,71.44
2018-12-10T10:01:32.743Z,72.27
2018-12-10T10:04:00.137Z,72.28
2018-12-10T10:06:27.527Z,73.32
2018-12-10T10:08:54.923Z,74.41
2018-12-10T10:11:22.410Z,76.77
2018-12-10T10:13:49.832Z,76.67
2018-12-10T10:16:17.279Z,72.60
2018-12-10T10:18:44.737Z,72.82
2018-12-10T10:21:12.131Z,72.51
2018-12-10T10:23:39.555Z,70.80
2018-12-10T10:26:06.938Z,71.67
2018-12-10T10:28:34.358Z,71.10
2018-12-10T10:31:01.809Z,72.20
2018-12-10T10:33:32.416Z,71.94
2018-12-10T10:35:58.670Z,73.54
2018-12-10T10:38:26.135Z,74.95
2018-12-10T10:40:53.586Z,75.01
2018-12-10T10:43:20.980Z,75.14
2018-12-10T10:45:48.399Z,75.24
2018-12-10T10:48:15.858Z,76.45
2018-12-10T10:50:43.313Z,77.08
2018-12-10T10:53:10.769Z,78.45
2018-12-10T10:55:38.227Z,79.15
2018-12-10T10:58:05.615Z,79.22
2018-12-10T11:00:38.579Z,80.39
2018-12-10T11:03:07.864Z,79.64
2018-12-10T11:05:35.291Z,79.48
2018-12-10T11:08:02.731Z,78.26
2018-12-10T11:10:30.130Z,77.34
2018-12-10T11:12:57.599Z,77.29
2018-12-10T11:15:25.050Z,77.85
2018-12-10T11:17:52.516Z,77.49
2018-12-10T11:20:19.962Z,77.42
2018-12-10T11:22:47.425Z,78.57
2018-12-10T11:25:14.874Z,77.11
2018-12-10T11:27:42.334Z,76.36
2018-12-10T11:30:09.795Z,76.73
2018-12-10T11:32:37.246Z,76.53
2018-12-10T11:35:04.701Z,75.81
2018-12-10T11:37:32.836Z,76.68
2018-12-10T11:40:00.319Z,76.68
2018-12-10T11:42:27.792Z,77.48
2018-12-10T11:44:55.346Z,76.97
2018-12-10T11:47:22.806Z,77.79
2018-12-10T11:49:50.270Z,77.62
2018-12-10T11:52:17.668Z,76.88
2018-12-10T11:54:45.046Z,76.86
2018-12-10T11:57:12.498Z,77.91
2018-12-10T11:59:39.890Z,77.29
2018-12-10T12:02:07.291Z,78.64
2018-12-10T12:04:34.671Z,78.17
2018-12-10T12:07:02.072Z,77.95
2018-12-10T12:09:29.458Z,77.83
2018-12-10T12:11:56.850Z,79.42
2018-12-10T12:14:24.234Z,79.78
2018-12-10T12:16:51.622Z,79.96
2018-12-10T12:19:19.003Z,79.23
2018-12-10T12:21:46.394Z,78.88
2018-12-10T12:24:13.778Z,77.75
2018-12-10T12:26:41.203Z,77.41
2018-12-10T12:29:08.658Z,77.98
2018-12-10T12:31:36.037Z,78.09
2018-12-10T12:34:03.477Z,78.82
2018-12-10T12:36:30.867Z,77.58
2018-12-10T12:38:58.249Z,77.43
2018-12-10T12:41:25.634Z,78.08
2018-12-10T12:43:53.086Z,77.92
2018-12-10T12:46:20.656Z,78.97
2018-12-10T12:48:48.113Z,79.51
2018-12-10T12:51:15.498Z,78.87
2018-12-10T12:53:42.924Z,79.81
2018-12-10T12:56:10.374Z,79.18
2018-12-10T12:58:37.835Z,79.77
2018-12-10T13:01:05.216Z,78.44
2018-12-10T13:03:32.646Z,79.50
2018-12-10T13:06:06.752Z,78.74
2018-12-10T13:08:31.152Z,79.37
2018-12-10T13:10:58.810Z,79.85
2018-12-10T13:13:26.258Z,79.57
2018-12-10T13:15:53.723Z,78.39
2018-12-10T13:18:21.173Z,78.63
2018-12-10T13:20:48.562Z,79.76
2018-12-10T13:23:15.950Z,79.79
2018-12-10T13:25:43.342Z,78.70
2018-12-10T13:28:10.802Z,78.55
2018-12-10T13:30:38.305Z,78.37
2018-12-10T13:33:05.927Z,79.42
2018-12-10T13:38:04.463Z,80.91
2018-12-10T13:40:31.255Z,80.93
2018-12-10T13:42:58.654Z,81.98
2018-12-10T13:45:30.996Z,82.53
2018-12-10T13:47:55.546Z,82.79
2018-12-10T13:50:23.009Z,83.95
2018-12-10T13:52:50.491Z,83.77
2018-12-10T13:55:17.969Z,85.23
2018-12-10T13:57:45.425Z,85.06
2018-12-10T14:00:12.818Z,85.72
2018-12-10T14:02:40.217Z,85.20
2018-12-10T14:05:09.506Z,84.49
2018-12-10T14:07:36.970Z,83.65
2018-12-10T14:10:05.154Z,83.71
2018-12-10T14:12:32.538Z,84.42
2018-12-10T14:14:59.963Z,84.99
2018-12-10T14:17:27.427Z,85.49
2018-12-10T14:19:54.869Z,86.62
2018-12-10T14:22:22.259Z,87.71
2018-12-10T14:24:49.643Z,88.34
2018-12-10T14:27:17.041Z,88.30
2018-12-10T14:29:44.494Z,88.87
2018-12-10T14:32:11.886Z,89.10
2018-12-10T14:34:39.266Z,90.37
2018-12-10T14:37:06.649Z,90.28
2018-12-10T14:39:34.075Z,89.99
2018-12-10T14:42:01.469Z,89.97
2018-12-10T14:44:28.947Z,90.50
2018-12-10T14:46:56.386Z,91.04
2018-12-10T14:49:23.786Z,90.51
2018-12-10T14:51:51.171Z,91.34
2018-12-10T14:54:18.567Z,92.07
2018-12-10T14:56:46.014Z,91.94
2018-12-10T14:59:13.487Z,92.27
2018-12-10T15:01:40.873Z,92.13
2018-12-10T15:04:08.272Z,91.71
2018-12-10T15:06:35.650Z,92.44
2018-12-10T15:09:04.371Z,92.70
2018-12-10T15:11:31.774Z,93.17
2018-12-10T15:13:59.209Z,92.94
2018-12-10T15:16:26.705Z,92.75
2018-12-10T15:18:54.251Z,92.48
2018-12-10T15:21:21.706Z,93.57
2018-12-10T15:23:49.165Z,94.42
2018-12-10T15:26:16.618Z,93.76
2018-12-10T15:28:43.993Z,92.88
2018-12-10T15:31:11.400Z,93.73
2018-12-10T15:33:38.825Z,92.66
2018-12-10T15:36:06.247Z,92.67
2018-12-10T15:38:33.693Z,93.31
2018-12-10T15:41:01.083Z,92.94
2018-12-10T15:43:28.463Z,93.18
2018-12-10T15:45:55.866Z,92.75
2018-12-10T15:48:23.254Z,92.56
2018-12-10T15:50:50.680Z,93.38
2018-12-10T15:53:18.058Z,92.73
2018-12-10T15:55:45.462Z,93.17
2018-12-10T15:58:12.842Z,93.58
2018-12-10T16:00:40.231Z,94.52
2018-12-10T16:03:07.618Z,93.15
2018-12-10T16:05:35.010Z,92.93
2018-12-10T16:08:02.471Z,92.16
2018-12-10T16:10:29.863Z,91.86
2018-12-10T16:12:57.274Z,91.83
2018-12-10T16:15:24.678Z,92.07
2018-12-10T16:17:52.066Z,92.31
2018-12-10T16:20:19.461Z,93.14
2018-12-10T16:22:47.105Z,93.32
2018-12-10T16:25:14.518Z,93.21
2018-12-10T16:27:42.105Z,93.66
2018-12-10T16:30:09.587Z,93.70
2018-12-10T16:32:36.974Z,93.62
2018-12-10T16:35:04.497Z,94.01
2018-12-10T16:37:31.950Z,93.86
2018-12-10T16:39:59.331Z,93.18
2018-12-10T16:42:26.758Z,93.75
2018-12-10T16:44:54.220Z,93.13
2018-12-10T16:47:21.632Z,93.09
2018-12-10T16:49:49.135Z,92.59
2018-12-10T16:52:16.592Z,92.15
2018-12-10T16:54:44.047Z,91.95
2018-12-10T16:57:11.434Z,91.70
2018-12-10T16:59:38.853Z,92.64
2018-12-10T17:02:06.517Z,93.60
2018-12-10T17:04:33.906Z,94.07
2018-12-10T17:07:01.330Z,94.29
2018-12-10T17:09:29.115Z,94.49
2018-12-10T17:11:56.810Z,93.99
2018-12-10T17:14:24.201Z,94.03
2018-12-10T17:16:51.676Z,94.43
2018-12-10T17:19:19.138Z,93.02
2018-12-10T17:21:46.684Z,92.48
2018-12-10T17:24:14.134Z,92.17
2018-12-10T17:26:41.598Z,92.42
2018-12-10T17:29:09.059Z,90.98
2018-12-10T17:31:36.510Z,92.47
2018-12-10T17:34:03.937Z,92.41
2018-12-10T17:36:31.426Z,92.24
2018-12-10T17:38:58.895Z,93.02
2018-12-10T17:41:26.332Z,93.95
2018-12-10T17:43:53.798Z,93.31
2018-12-10T17:46:21.181Z,92.92
2018-12-10T17:48:48.611Z,94.09
2018-12-10T17:51:16.058Z,93.38
2018-12-10T17:53:43.884Z,94.05
2018-12-10T17:56:11.379Z,93.65
2018-12-10T17:58:38.778Z,92.76
2018-12-10T18:01:06.179Z,93.68
2018-12-10T18:03:33.658Z,92.82
2018-12-10T18:06:01.051Z,93.74
2018-12-10T18:08:28.467Z,93.17
2018-12-10T18:10:55.858Z,93.94
2018-12-10T18:13:23.276Z,94.18
2018-12-10T18:15:50.746Z,92.84
2018-12-10T18:18:18.138Z,93.24
2018-12-10T18:20:45.519Z,93.13
2018-12-10T18:23:12.919Z,93.96
2018-12-10T18:25:40.306Z,93.48
2018-12-10T18:28:07.702Z,92.88
2018-12-10T18:30:35.298Z,93.41
2018-12-10T18:33:02.702Z,92.60
2018-12-10T18:35:30.152Z,93.96
2018-12-10T18:37:58.121Z,93.49
2018-12-10T18:40:25.713Z,93.00
2018-12-10T18:42:53.216Z,92.57
2018-12-10T18:45:20.626Z,93.08
2018-12-10T18:47:48.078Z,93.38
2018-12-10T18:50:15.466Z,92.14
2018-12-10T18:52:42.845Z,92.47
2018-12-10T18:55:10.250Z,91.52
2018-12-10T18:57:37.707Z,91.96
2018-12-10T19:00:09.010Z,92.40
2018-12-10T19:02:36.815Z,92.83
2018-12-10T19:05:05.706Z,92.65
2018-12-10T19:07:33.498Z,93.35
2018-12-10T19:10:00.901Z,94.21
2018-12-10T19:12:28.606Z,93.63
2018-12-10T19:14:56.226Z,94.25
2018-12-10T19:17:23.752Z,94.43
2018-12-10T19:19:51.399Z,94.63
2018-12-10T19:22:18.851Z,95.32
2018-12-10T19:24:46.410Z,95.56
2018-12-10T19:27:14.061Z,95.05
2018-12-10T19:29:42.014Z,95.43
2018-12-10T19:32:09.494Z,94.82
2018-12-10T19:34:36.975Z,95.22
2018-12-10T19:37:04.470Z,94.91
2018-12-10T19:39:31.864Z,94.62
2018-12-10T19:41:59.323Z,94.01
2018-12-10T19:44:26.779Z,94.30
2018-12-10T19:46:54.275Z,94.00
2018-12-10T19:49:21.783Z,93.60
2018-12-10T19:51:49.161Z,93.41
2018-12-10T19:54:16.631Z,94.44
2018-12-10T19:56:44.048Z,94.01
2018-12-10T19:59:11.532Z,93.92
2018-12-10T20:01:39.078Z,94.40
2018-12-10T20:04:06.528Z,93.69
2018-12-10T20:06:35.835Z,93.61
2018-12-10T20:09:06.143Z,94.73
2018-12-10T20:11:33.538Z,94.21
2018-12-10T20:14:01.018Z,93.75
2018-12-10T20:16:28.413Z,93.67
2018-12-10T20:18:55.866Z,93.66
2018-12-10T20:21:23.346Z,94.30
2018-12-10T20:23:50.733Z,94.76
2018-12-10T20:26:18.134Z,95.14
2018-12-10T20:28:45.704Z,95.26
2018-12-10T20:31:13.157Z,94.63
2018-12-10T20:33:40.631Z,94.90
2018-12-10T20:36:08.026Z,93.67
2018-12-10T20:38:35.507Z,94.63
2018-12-10T20:41:02.970Z,93.72
2018-12-10T20:43:30.426Z,94.87
2018-12-10T20:45:57.906Z,93.69
2018-12-10T20:48:25.354Z,93.63
2018-12-10T20:50:52.838Z,93.73
2018-12-10T20:53:20.994Z,93.22
2018-12-10T20:55:48.439Z,94.53
2018-12-10T20:58:15.907Z,94.04
2018-12-10T21:00:43.355Z,94.15
2018-12-10T21:03:10.806Z,93.60
2018-12-10T21:05:40.186Z,93.80
2018-12-10T21:08:07.649Z,92.93
2018-12-10T21:10:35.034Z,92.90
2018-12-10T21:13:02.543Z,91.77
2018-12-10T21:15:30.110Z,90.64
2018-12-10T21:17:57.594Z,91.62
2018-12-10T21:20:25.022Z,90.91
2018-12-10T21:22:52.406Z,91.67
2018-12-10T21:25:19.874Z,92.05
2018-12-10T21:27:47.333Z,91.85
2018-12-10T21:30:14.784Z,92.30
2018-12-10T21:32:42.179Z,92.17
2018-12-10T21:35:09.585Z,92.63
2018-12-10T21:37:36.983Z,92.26
2018-12-10T21:40:04.570Z,93.34
2018-12-10T21:42:31.968Z,92.57
2018-12-10T21:44:59.359Z,93.04
2018-12-10T21:47:26.741Z,92.00
2018-12-10T21:49:54.170Z,92.07
2018-12-10T21:52:21.592Z,91.52
2018-12-10T21:54:49.011Z,91.32
2018-12-10T21:57:16.433Z,91.08
2018-12-10T21:59:43.870Z,90.97
2018-12-10T22:02:11.345Z,90.61
2018-12-10T22:04:38.734Z,91.63
2018-12-10T22:07:06.146Z,91.85
2018-12-10T22:09:33.584Z,92.26
2018-12-10T22:12:00.970Z,92.55
2018-12-10T22:14:28.346Z,91.86
2018-12-10T22:16:55.754Z,92.51
2018-12-10T22:19:23.203Z,92.31
2018-12-10T22:21:50.663Z,93.07
2018-12-10T22:24:18.114Z,93.15
2018-12-10T22:26:45.490Z,93.14
2018-12-10T22:29:12.922Z,92.34
2018-12-10T22:31:40.674Z,93.22
2018-12-10T22:34:08.081Z,93.09
2018-12-10T22:36:35.497Z,91.90
2018-12-10T22:39:04.103Z,92.27
2018-12-10T22:41:31.510Z,91.97
2018-12-10T22:43:58.893Z,91.40
2018-12-10T22:46:26.453Z,90.97
2018-12-10T22:48:54.150Z,91.39
2018-12-10T22:51:21.574Z,92.00
2018-12-10T22:53:48.962Z,92.23
2018-12-10T22:56:16.367Z,91.42
2018-12-10T22:58:43.791Z,92.19
2018-12-10T23:01:11.183Z,92.00
2018-12-10T23:03:38.679Z,91.68
2018-12-10T23:06:06.921Z,91.72
2018-12-10T23:08:34.386Z,90.77
2018-12-10T23:11:01.767Z,90.89
2018-12-10T23:13:29.155Z,90.87
2018-12-10T23:15:56.542Z,90.56
2018-12-10T23:18:23.986Z,91.83
2018-12-10T23:20:51.383Z,92.14
2018-12-10T23:23:18.847Z,92.12
2018-12-10T23:25:46.222Z,92.59
2018-12-10T23:28:13.640Z,91.99
2018-12-10T23:30:41.082Z,92.70
2018-12-10T23:33:08.534Z,92.82
2018-12-10T23:35:35.937Z,92.65
2018-12-10T23:38:03.374Z,92.16
2018-12-10T23:40:30.826Z,92.78
2018-12-10T23:43:03.766Z,93.74
2018-12-10T23:45:31.253Z,93.48
2018-12-10T23:47:58.715Z,93.54
2018-12-10T23:50:26.114Z,92.91
2018-12-10T23:52:53.501Z,92.60
2018-12-10T23:55:20.894Z,93.68
2018-12-10T23:57:48.282Z,92.87
